createdAt,value
2018-12-24T00:00:42.096Z,1010.59
2018-12-24T00:01:42.111Z,1010.63
2018-12-24T00:02:42.123Z,1010.64
2018-12-24T00:03:42.141Z,1010.72
2018-12-24T00:04:42.157Z,1010.74
2018-12-24T00:05:42.169Z,1010.72
2018-12-24T00:06:42.189Z,1010.69
2018-12-24T00:07:42.201Z,1010.72
2018-12-24T00:08:42.217Z,1010.79
2018-12-24T00:09:42.229Z,1010.82
2018-12-24T00:10:42.245Z,1010.83
2018-12-24T00:11:42.260Z,1010.84
2018-12-24T00:12:42.278Z,1010.89
2018-12-24T00:13:42.291Z,1010.89
2018-12-24T00:14:42.307Z,1010.92
2018-12-24T00:15:42.324Z,1010.90
2018-12-24T00:16:42.338Z,1010.85
2018-12-24T00:17:42.353Z,1010.86
2018-12-24T00:18:42.367Z,1010.83
2018-12-24T00:19:42.384Z,1010.83
2018-12-24T00:20:42.397Z,1010.82
2018-12-24T00:21:42.411Z,1010.82
2018-12-24T00:22:42.429Z,1010.84
2018-12-24T00:23:42.444Z,1010.88
2018-12-24T00:24:42.461Z,1010.89
2018-12-24T00:25:42.477Z,1010.92
2018-12-24T00:26:42.488Z,1010.96
2018-12-24T00:27:42.506Z,1011.06
2018-12-24T00:28:42.518Z,1011.07
2018-12-24T00:29:42.533Z,1011.10
2018-12-24T00:30:43.151Z,1011.11
2018-12-24T00:31:42.567Z,1011.14
2018-12-24T00:32:42.581Z,1011.20
2018-12-24T00:33:42.596Z,1011.17
2018-12-24T00:34:42.611Z,1011.21
2018-12-24T00:35:42.624Z,1011.21
2018-12-24T00:36:42.644Z,1011.21
2018-12-24T00:37:42.658Z,1011.26
2018-12-24T00:38:42.670Z,1011.24
2018-12-24T00:39:42.685Z,1011.33
2018-12-24T00:40:42.701Z,1011.35
2018-12-24T00:41:42.719Z,1011.33
2018-12-24T00:42:42.731Z,1011.35
2018-12-24T00:43:42.750Z,1011.40
2018-12-24T00:44:42.762Z,1011.41
2018-12-24T00:45:42.776Z,1011.42
2018-12-24T00:46:42.794Z,1011.44
2018-12-24T00:47:42.807Z,1011.52
2018-12-24T00:48:42.823Z,1011.48
2018-12-24T00:49:42.839Z,1011.51
2018-12-24T00:50:42.855Z,1011.54
2018-12-24T00:51:42.869Z,1011.56
2018-12-24T00:52:42.886Z,1011.61
2018-12-24T00:53:42.901Z,1011.62
2018-12-24T00:54:42.914Z,1011.66
2018-12-24T00:55:42.931Z,1011.69
2018-12-24T00:56:42.951Z,1011.73
2018-12-24T00:57:42.961Z,1011.75
2018-12-24T00:58:42.975Z,1011.73
2018-12-24T00:59:42.991Z,1011.82
2018-12-24T01:00:43.005Z,1011.82
2018-12-24T01:01:43.022Z,1011.83
2018-12-24T01:02:43.036Z,1011.93
2018-12-24T01:03:43.051Z,1011.97
2018-12-24T01:04:43.066Z,1011.94
2018-12-24T01:05:43.083Z,1011.94
2018-12-24T01:06:43.099Z,1012.01
2018-12-24T01:07:43.113Z,1012.02
2018-12-24T01:08:43.128Z,1012.04
2018-12-24T01:09:43.146Z,1012.03
2018-12-24T01:10:43.159Z,1012.09
2018-12-24T01:11:43.175Z,1012.07
2018-12-24T01:12:43.190Z,1012.12
2018-12-24T01:13:43.207Z,1012.15
2018-12-24T01:14:43.217Z,1012.16
2018-12-24T01:15:43.235Z,1012.25
2018-12-24T01:16:43.250Z,1012.27
2018-12-24T01:17:43.265Z,1012.21
2018-12-24T01:18:43.284Z,1012.19
2018-12-24T01:19:43.296Z,1012.23
2018-12-24T01:20:43.563Z,1012.18
2018-12-24T01:21:43.323Z,1012.30
2018-12-24T01:22:43.341Z,1012.32
2018-12-24T01:23:43.355Z,1012.31
2018-12-24T01:24:43.370Z,1012.34
2018-12-24T01:25:43.485Z,1012.34
2018-12-24T01:26:43.401Z,1012.41
2018-12-24T01:27:43.415Z,1012.42
2018-12-24T01:28:43.438Z,1012.42
2018-12-24T01:29:43.445Z,1012.47
2018-12-24T01:30:43.563Z,1012.43
2018-12-24T01:31:43.479Z,1012.44
2018-12-24T01:32:43.492Z,1012.43
2018-12-24T01:33:43.506Z,1012.50
2018-12-24T01:34:43.524Z,1012.55
2018-12-24T01:35:43.540Z,1012.51
2018-12-24T01:36:43.553Z,1012.61
2018-12-24T01:37:43.568Z,1012.58
2018-12-24T01:38:43.583Z,1012.63
2018-12-24T01:39:43.599Z,1012.67
2018-12-24T01:40:43.617Z,1012.65
2018-12-24T01:41:43.628Z,1012.68
2018-12-24T01:42:43.647Z,1012.67
2018-12-24T01:43:43.661Z,1012.69
2018-12-24T01:44:43.675Z,1012.71
2018-12-24T01:45:43.691Z,1012.72
2018-12-24T01:46:43.705Z,1012.76
2018-12-24T01:47:43.721Z,1012.76
2018-12-24T01:48:43.736Z,1012.85
2018-12-24T01:49:43.754Z,1012.84
2018-12-24T01:50:43.767Z,1012.87
2018-12-24T01:51:43.786Z,1012.85
2018-12-24T01:52:43.801Z,1012.84
2018-12-24T01:53:43.814Z,1012.85
2018-12-24T01:54:43.830Z,1012.93
2018-12-24T01:55:43.849Z,1012.94
2018-12-24T01:56:43.859Z,1012.97
2018-12-24T01:57:43.877Z,1012.95
2018-12-24T01:58:43.889Z,1013.00
2018-12-24T01:59:43.910Z,1013.05
2018-12-24T02:00:43.923Z,1013.08
2018-12-24T02:01:43.943Z,1013.11
2018-12-24T02:02:43.951Z,1013.14
2018-12-24T02:03:43.969Z,1013.14
2018-12-24T02:04:43.985Z,1013.17
2018-12-24T02:05:43.997Z,1013.16
2018-12-24T02:06:44.013Z,1013.18
2018-12-24T02:07:44.030Z,1013.26
2018-12-24T02:08:44.046Z,1013.22
2018-12-24T02:09:44.059Z,1013.21
2018-12-24T02:10:44.074Z,1013.23
2018-12-24T02:11:44.092Z,1013.24
2018-12-24T02:12:44.111Z,1013.27
2018-12-24T02:13:44.122Z,1013.27
2018-12-24T02:14:44.138Z,1013.31
2018-12-24T02:15:44.154Z,1013.35
2018-12-24T02:16:44.167Z,1013.35
2018-12-24T02:17:44.185Z,1013.32
2018-12-24T02:18:44.201Z,1013.33
2018-12-24T02:19:44.215Z,1013.35
2018-12-24T02:20:44.229Z,1013.35
2018-12-24T02:21:44.244Z,1013.39
2018-12-24T02:22:44.262Z,1013.41
2018-12-24T02:23:44.276Z,1013.37
2018-12-24T02:24:44.295Z,1013.36
2018-12-24T02:25:44.306Z,1013.43
2018-12-24T02:26:44.322Z,1013.46
2018-12-24T02:27:44.337Z,1013.47
2018-12-24T02:28:44.353Z,1013.45
2018-12-24T02:29:44.368Z,1013.46
2018-12-24T02:30:44.386Z,1013.48
2018-12-24T02:31:44.400Z,1013.42
2018-12-24T02:32:44.417Z,1013.53
2018-12-24T02:33:44.429Z,1013.53
2018-12-24T02:34:44.448Z,1013.58
2018-12-24T02:35:44.461Z,1013.56
2018-12-24T02:36:44.481Z,1013.62
2018-12-24T02:37:44.492Z,1013.67
2018-12-24T02:38:44.510Z,1013.70
2018-12-24T02:39:44.524Z,1013.75
2018-12-24T02:40:44.538Z,1013.77
2018-12-24T02:41:44.556Z,1013.77
2018-12-24T02:42:52.370Z,1013.82
2018-12-24T02:43:44.595Z,1013.82
2018-12-24T02:44:44.607Z,1013.86
2018-12-24T02:45:44.634Z,1013.86
2018-12-24T02:46:44.637Z,1013.87
2018-12-24T02:47:44.650Z,1013.88
2018-12-24T02:48:44.664Z,1013.93
2018-12-24T02:49:44.679Z,1013.92
2018-12-24T02:50:44.694Z,1013.97
2018-12-24T02:51:44.709Z,1013.97
2018-12-24T02:52:44.724Z,1014.00
2018-12-24T02:53:44.746Z,1014.04
2018-12-24T02:54:44.755Z,1014.06
2018-12-24T02:55:44.776Z,1014.08
2018-12-24T02:56:44.789Z,1014.12
2018-12-24T02:57:44.800Z,1014.11
2018-12-24T02:58:44.842Z,1014.09
2018-12-24T02:59:44.832Z,1014.12
2018-12-24T03:00:44.853Z,1014.14
2018-12-24T03:01:44.863Z,1014.16
2018-12-24T03:02:44.880Z,1014.14
2018-12-24T03:03:44.894Z,1014.17
2018-12-24T03:04:44.913Z,1014.20
2018-12-24T03:05:44.924Z,1014.23
2018-12-24T03:06:44.940Z,1014.23
2018-12-24T03:07:44.957Z,1014.29
2018-12-24T03:08:44.972Z,1014.32
2018-12-24T03:09:44.989Z,1014.33
2018-12-24T03:10:45.003Z,1014.33
2018-12-24T03:11:45.021Z,1014.34
2018-12-24T03:12:45.036Z,1014.39
2018-12-24T03:13:45.050Z,1014.35
2018-12-24T03:14:45.067Z,1014.46
2018-12-24T03:15:45.083Z,1014.43
2018-12-24T03:16:45.098Z,1014.46
2018-12-24T03:17:45.111Z,1014.48
2018-12-24T03:18:45.127Z,1014.49
2018-12-24T03:19:45.153Z,1014.52
2018-12-24T03:20:45.159Z,1014.50
2018-12-24T03:21:45.174Z,1014.49
2018-12-24T03:22:45.200Z,1014.48
2018-12-24T03:23:45.213Z,1014.48
2018-12-24T03:24:45.221Z,1014.51
2018-12-24T03:25:45.236Z,1014.54
2018-12-24T03:26:45.253Z,1014.55
2018-12-24T03:27:45.269Z,1014.57
2018-12-24T03:28:45.283Z,1014.56
2018-12-24T03:29:45.302Z,1014.50
2018-12-24T03:30:45.317Z,1014.52
2018-12-24T03:31:45.331Z,1014.51
2018-12-24T03:32:45.347Z,1014.52
2018-12-24T03:33:45.363Z,1014.50
2018-12-24T03:34:45.377Z,1014.59
2018-12-24T03:35:45.394Z,1014.55
2018-12-24T03:36:45.407Z,1014.61
2018-12-24T03:37:45.425Z,1014.63
2018-12-24T03:38:45.439Z,1014.62
2018-12-24T03:39:45.456Z,1014.63
2018-12-24T03:40:45.469Z,1014.64
2018-12-24T03:41:45.483Z,1014.66
2018-12-24T03:42:45.503Z,1014.73
2018-12-24T03:43:45.518Z,1014.72
2018-12-24T03:44:45.532Z,1014.78
2018-12-24T03:45:45.546Z,1014.79
2018-12-24T03:46:45.563Z,1014.87
2018-12-24T03:47:45.577Z,1014.86
2018-12-24T03:48:45.595Z,1014.90
2018-12-24T03:49:45.611Z,1014.90
2018-12-24T03:50:45.629Z,1014.91
2018-12-24T03:51:45.640Z,1014.94
2018-12-24T03:52:45.658Z,1014.93
2018-12-24T03:53:45.673Z,1014.97
2018-12-24T03:54:45.691Z,1014.98
2018-12-24T03:55:45.704Z,1014.99
2018-12-24T03:56:45.720Z,1014.98
2018-12-24T03:57:45.732Z,1015.00
2018-12-24T03:58:45.750Z,1015.05
2018-12-24T03:59:45.868Z,1015.02
2018-12-24T04:00:45.782Z,1015.03
2018-12-24T04:01:45.799Z,1015.15
2018-12-24T04:02:45.816Z,1015.18
2018-12-24T04:03:45.829Z,1015.18
2018-12-24T04:04:45.844Z,1015.22
2018-12-24T04:05:45.861Z,1015.18
2018-12-24T04:06:45.880Z,1015.26
2018-12-24T04:07:45.888Z,1015.29
2018-12-24T04:08:45.906Z,1015.30
2018-12-24T04:09:45.921Z,1015.33
2018-12-24T04:10:45.938Z,1015.31
2018-12-24T04:11:45.953Z,1015.37
2018-12-24T04:12:45.968Z,1015.37
2018-12-24T04:13:45.983Z,1015.47
2018-12-24T04:14:46.000Z,1015.47
2018-12-24T04:15:46.012Z,1015.52
2018-12-24T04:16:46.031Z,1015.57
2018-12-24T04:17:46.044Z,1015.62
2018-12-24T04:18:46.059Z,1015.64
2018-12-24T04:19:46.128Z,1015.68
2018-12-24T04:20:46.093Z,1015.69
2018-12-24T04:21:46.263Z,1015.72
2018-12-24T04:22:46.121Z,1015.72
2018-12-24T04:23:46.137Z,1015.74
2018-12-24T04:24:46.155Z,1015.78
2018-12-24T04:25:46.169Z,1015.82
2018-12-24T04:26:46.186Z,1015.85
2018-12-24T04:27:46.201Z,1015.88
2018-12-24T04:28:46.219Z,1015.95
2018-12-24T04:29:46.233Z,1015.94
2018-12-24T04:30:46.255Z,1016.00
2018-12-24T04:31:46.263Z,1016.00
2018-12-24T04:32:46.285Z,1016.03
2018-12-24T04:33:46.292Z,1016.08
2018-12-24T04:34:46.308Z,1016.07
2018-12-24T04:35:46.325Z,1016.10
2018-12-24T04:36:46.341Z,1016.17
2018-12-24T04:37:46.354Z,1016.17
2018-12-24T04:38:46.371Z,1016.19
2018-12-24T04:39:46.386Z,1016.20
2018-12-24T04:40:46.402Z,1016.23
2018-12-24T04:41:46.418Z,1016.27
2018-12-24T04:42:46.434Z,1016.29
2018-12-24T04:43:46.445Z,1016.27
2018-12-24T04:44:46.460Z,1016.27
2018-12-24T04:45:46.482Z,1016.26
2018-12-24T04:46:46.493Z,1016.32
2018-12-24T04:47:46.507Z,1016.35
2018-12-24T04:48:46.524Z,1016.37
2018-12-24T04:49:46.538Z,1016.36
2018-12-24T04:50:46.556Z,1016.40
2018-12-24T04:51:46.572Z,1016.46
2018-12-24T04:52:46.588Z,1016.46
2018-12-24T04:53:46.600Z,1016.42
2018-12-24T04:54:46.619Z,1016.48
2018-12-24T04:55:46.633Z,1016.49
2018-12-24T04:56:46.656Z,1016.53
2018-12-24T04:57:46.663Z,1016.62
2018-12-24T04:58:46.678Z,1016.62
2018-12-24T04:59:46.693Z,1016.66
2018-12-24T05:00:46.710Z,1016.68
2018-12-24T05:01:46.723Z,1016.68
2018-12-24T05:02:46.840Z,1016.73
2018-12-24T05:03:46.759Z,1016.74
2018-12-24T05:04:46.771Z,1016.75
2018-12-24T05:05:46.791Z,1016.71
2018-12-24T05:06:46.801Z,1016.74
2018-12-24T05:07:46.819Z,1016.77
2018-12-24T05:08:46.833Z,1016.84
2018-12-24T05:09:46.847Z,1016.88
2018-12-24T05:10:46.867Z,1016.84
2018-12-24T05:11:46.879Z,1016.89
2018-12-24T05:12:46.895Z,1016.96
2018-12-24T05:13:46.910Z,1016.93
2018-12-24T05:14:46.928Z,1016.98
2018-12-24T05:15:46.942Z,1017.05
2018-12-24T05:16:46.960Z,1017.05
2018-12-24T05:17:46.974Z,1017.09
2018-12-24T05:18:46.992Z,1017.09
2018-12-24T05:19:47.007Z,1017.10
2018-12-24T05:20:47.019Z,1017.16
2018-12-24T05:21:47.034Z,1017.15
2018-12-24T05:22:47.052Z,1017.15
2018-12-24T05:23:47.065Z,1017.19
2018-12-24T05:24:47.085Z,1017.26
2018-12-24T05:25:47.102Z,1017.29
2018-12-24T05:26:47.117Z,1017.38
2018-12-24T05:27:47.130Z,1017.41
2018-12-24T05:28:47.147Z,1017.42
2018-12-24T05:29:47.161Z,1017.44
2018-12-24T05:30:47.177Z,1017.42
2018-12-24T05:31:47.193Z,1017.48
2018-12-24T05:32:47.206Z,1017.50
2018-12-24T05:33:47.223Z,1017.57
2018-12-24T05:34:47.237Z,1017.63
2018-12-24T05:35:47.253Z,1017.65
2018-12-24T05:36:47.269Z,1017.70
2018-12-24T05:37:47.286Z,1017.70
2018-12-24T05:38:47.302Z,1017.76
2018-12-24T05:39:47.316Z,1017.74
2018-12-24T05:40:47.333Z,1017.83
2018-12-24T05:41:47.348Z,1017.84
2018-12-24T05:42:47.365Z,1017.83
2018-12-24T05:43:49.503Z,1017.89
2018-12-24T05:44:47.395Z,1017.86
2018-12-24T05:45:47.408Z,1017.98
2018-12-24T05:46:47.425Z,1018.00
2018-12-24T05:47:47.442Z,1017.98
2018-12-24T05:48:47.456Z,1017.95
2018-12-24T05:49:47.479Z,1018.00
2018-12-24T05:50:47.489Z,1018.08
2018-12-24T05:51:47.504Z,1018.14
2018-12-24T05:52:47.520Z,1018.12
2018-12-24T05:53:47.532Z,1018.15
2018-12-24T05:54:47.552Z,1018.19
2018-12-24T05:55:47.566Z,1018.19
2018-12-24T05:56:47.582Z,1018.21
2018-12-24T05:57:47.596Z,1018.18
2018-12-24T05:58:47.613Z,1018.20
2018-12-24T05:59:47.627Z,1018.22
2018-12-24T06:00:47.642Z,1018.17
2018-12-24T06:01:47.657Z,1018.21
2018-12-24T06:02:47.673Z,1018.24
2018-12-24T06:03:47.690Z,1018.26
2018-12-24T06:04:47.704Z,1018.28
2018-12-24T06:05:47.721Z,1018.33
2018-12-24T06:06:47.734Z,1018.33
2018-12-24T06:07:47.753Z,1018.42
2018-12-24T06:08:47.768Z,1018.38
2018-12-24T06:09:47.883Z,1018.44
2018-12-24T06:10:47.796Z,1018.45
2018-12-24T06:11:47.814Z,1018.47
2018-12-24T06:12:47.830Z,1018.53
2018-12-24T06:13:47.842Z,1018.58
2018-12-24T06:14:47.860Z,1018.62
2018-12-24T06:15:47.890Z,1018.64
2018-12-24T06:16:47.890Z,1018.68
2018-12-24T06:17:47.903Z,1018.77
2018-12-24T06:18:47.919Z,1018.80
2018-12-24T06:19:47.938Z,1018.86
2018-12-24T06:20:47.952Z,1018.88
2018-12-24T06:21:47.965Z,1019.02
2018-12-24T06:22:47.982Z,1019.06
2018-12-24T06:23:47.999Z,1019.06
2018-12-24T06:24:48.011Z,1019.08
2018-12-24T06:25:48.278Z,1019.08
2018-12-24T06:26:48.044Z,1019.13
2018-12-24T06:27:48.060Z,1019.14
2018-12-24T06:28:48.075Z,1019.18
2018-12-24T06:29:48.090Z,1019.19
2018-12-24T06:30:48.102Z,1019.23
2018-12-24T06:31:48.118Z,1019.21
2018-12-24T06:32:48.137Z,1019.27
2018-12-24T06:33:48.150Z,1019.37
2018-12-24T06:34:48.164Z,1019.40
2018-12-24T06:35:48.181Z,1019.43
2018-12-24T06:36:48.195Z,1019.49
2018-12-24T06:37:48.209Z,1019.65
2018-12-24T06:38:48.226Z,1019.62
2018-12-24T06:39:48.241Z,1019.64
2018-12-24T06:40:48.254Z,1019.75
2018-12-24T06:41:48.270Z,1019.78
2018-12-24T06:42:48.287Z,1019.83
2018-12-24T06:43:48.300Z,1019.86
2018-12-24T06:44:48.319Z,1019.89
2018-12-24T06:45:48.330Z,1019.87
2018-12-24T06:46:48.346Z,1019.90
2018-12-24T06:47:48.361Z,1019.92
2018-12-24T06:48:48.378Z,1019.86
2018-12-24T06:49:48.407Z,1019.87
2018-12-24T06:50:48.405Z,1019.90
2018-12-24T06:51:48.424Z,1019.87
2018-12-24T06:52:48.439Z,1019.90
2018-12-24T06:53:48.603Z,1019.87
2018-12-24T06:54:48.469Z,1019.87
2018-12-24T06:55:48.483Z,1019.91
2018-12-24T06:56:48.498Z,1019.89
2018-12-24T06:57:48.512Z,1019.91
2018-12-24T06:58:48.530Z,1019.98
2018-12-24T06:59:48.540Z,1020.02
2018-12-24T07:00:48.558Z,1020.05
2018-12-24T07:01:48.572Z,1020.03
2018-12-24T07:02:48.590Z,1020.09
2018-12-24T07:03:48.600Z,1020.15
2018-12-24T07:04:48.616Z,1020.13
2018-12-24T07:05:48.632Z,1020.18
2018-12-24T07:06:48.654Z,1020.17
2018-12-24T07:07:48.662Z,1020.18
2018-12-24T07:08:48.679Z,1020.17
2018-12-24T07:09:48.692Z,1020.19
2018-12-24T07:10:48.708Z,1020.20
2018-12-24T07:11:48.723Z,1020.21
2018-12-24T07:12:48.738Z,1020.22
2018-12-24T07:13:48.749Z,1020.21
2018-12-24T07:14:48.766Z,1020.21
2018-12-24T07:15:48.782Z,1020.27
2018-12-24T07:16:48.795Z,1020.24
2018-12-24T07:17:48.811Z,1020.24
2018-12-24T07:18:48.824Z,1020.33
2018-12-24T07:19:48.840Z,1020.33
2018-12-24T07:20:48.855Z,1020.40
2018-12-24T07:21:48.870Z,1020.43
2018-12-24T07:22:48.884Z,1020.41
2018-12-24T07:23:48.905Z,1020.37
2018-12-24T07:24:48.917Z,1020.35
2018-12-24T07:25:48.928Z,1020.38
2018-12-24T07:26:48.947Z,1020.36
2018-12-24T07:27:48.962Z,1020.41
2018-12-24T07:28:48.983Z,1020.39
2018-12-24T07:29:48.988Z,1020.47
2018-12-24T07:30:49.012Z,1020.47
2018-12-24T07:31:49.019Z,1020.46
2018-12-24T07:32:49.035Z,1020.53
2018-12-24T07:33:49.048Z,1020.54
2018-12-24T07:34:49.066Z,1020.55
2018-12-24T07:35:49.079Z,1020.59
2018-12-24T07:36:49.097Z,1020.60
2018-12-24T07:37:49.110Z,1020.65
2018-12-24T07:38:49.126Z,1020.68
2018-12-24T07:39:49.141Z,1020.70
2018-12-24T07:40:49.157Z,1020.72
2018-12-24T07:41:49.168Z,1020.67
2018-12-24T07:42:49.186Z,1020.68
2018-12-24T07:43:49.198Z,1020.69
2018-12-24T07:44:49.215Z,1020.71
2018-12-24T07:45:49.230Z,1020.67
2018-12-24T07:46:49.244Z,1020.65
2018-12-24T07:47:49.258Z,1020.67
2018-12-24T07:48:49.274Z,1020.66
2018-12-24T07:49:49.286Z,1020.74
2018-12-24T07:50:49.304Z,1020.70
2018-12-24T07:51:49.316Z,1020.74
2018-12-24T07:52:49.334Z,1020.72
2018-12-24T07:53:49.348Z,1020.75
2018-12-24T07:54:49.369Z,1020.82
2018-12-24T07:55:49.378Z,1020.74
2018-12-24T07:56:49.394Z,1020.75
2018-12-24T07:57:49.405Z,1020.74
2018-12-24T07:58:49.429Z,1020.75
2018-12-24T07:59:49.435Z,1020.77
2018-12-24T08:00:49.458Z,1020.77
2018-12-24T08:01:49.466Z,1020.81
2018-12-24T08:02:49.479Z,1020.84
2018-12-24T08:03:49.496Z,1020.87
2018-12-24T08:04:49.509Z,1020.93
2018-12-24T08:05:49.523Z,1020.90
2018-12-24T08:06:49.540Z,1020.95
2018-12-24T08:07:49.552Z,1020.97
2018-12-24T08:08:49.569Z,1021.01
2018-12-24T08:09:49.586Z,1021.01
2018-12-24T08:10:49.599Z,1021.07
2018-12-24T08:11:49.611Z,1021.03
2018-12-24T08:12:49.630Z,1021.03
2018-12-24T08:13:49.639Z,1021.09
2018-12-24T08:14:49.658Z,1021.01
2018-12-24T08:15:49.671Z,1021.08
2018-12-24T08:16:49.684Z,1021.13
2018-12-24T08:17:49.697Z,1021.11
2018-12-24T08:18:49.713Z,1021.18
2018-12-24T08:19:49.733Z,1021.19
2018-12-24T08:20:49.742Z,1021.25
2018-12-24T08:21:49.759Z,1021.24
2018-12-24T08:22:49.771Z,1021.30
2018-12-24T08:23:49.785Z,1021.32
2018-12-24T08:24:49.803Z,1021.33
2018-12-24T08:25:49.817Z,1021.35
2018-12-24T08:26:52.333Z,1021.42
2018-12-24T08:27:49.846Z,1021.47
2018-12-24T08:28:49.958Z,1021.55
2018-12-24T08:29:49.872Z,1021.55
2018-12-24T08:30:49.888Z,1021.54
2018-12-24T08:31:49.907Z,1021.61
2018-12-24T08:32:49.926Z,1021.58
2018-12-24T08:33:49.931Z,1021.59
2018-12-24T08:34:49.947Z,1021.58
2018-12-24T08:35:49.959Z,1021.64
2018-12-24T08:36:49.977Z,1021.68
2018-12-24T08:37:49.988Z,1021.78
2018-12-24T08:38:50.005Z,1021.86
2018-12-24T08:39:50.017Z,1021.92
2018-12-24T08:40:50.034Z,1022.02
2018-12-24T08:41:50.050Z,1022.12
2018-12-24T08:42:50.060Z,1022.14
2018-12-24T08:43:50.079Z,1022.21
2018-12-24T08:44:50.089Z,1022.33
2018-12-24T08:45:50.103Z,1022.38
2018-12-24T08:46:50.117Z,1022.40
2018-12-24T08:47:50.136Z,1022.55
2018-12-24T08:48:50.149Z,1022.60
2018-12-24T08:49:50.165Z,1022.65
2018-12-24T08:50:50.177Z,1022.66
2018-12-24T08:51:50.193Z,1022.71
2018-12-24T08:52:50.208Z,1022.78
2018-12-24T08:53:50.220Z,1022.82
2018-12-24T08:54:50.233Z,1022.90
2018-12-24T08:55:50.249Z,1022.96
2018-12-24T08:56:50.265Z,1022.99
2018-12-24T08:57:50.278Z,1023.04
2018-12-24T08:58:50.293Z,1023.05
2018-12-24T08:59:50.308Z,1023.09
2018-12-24T09:00:50.323Z,1023.16
2018-12-24T09:01:50.338Z,1023.15
2018-12-24T09:02:50.349Z,1023.19
2018-12-24T09:03:50.363Z,1023.19
2018-12-24T09:04:50.378Z,1023.22
2018-12-24T09:05:50.399Z,1023.21
2018-12-24T09:06:50.407Z,1023.25
2018-12-24T09:07:50.421Z,1023.28
2018-12-24T09:08:50.439Z,1023.28
2018-12-24T09:09:50.450Z,1023.28
2018-12-24T09:10:50.468Z,1023.33
2018-12-24T09:11:50.482Z,1023.35
2018-12-24T09:12:50.494Z,1023.40
2018-12-24T09:13:50.517Z,1023.43
2018-12-24T09:14:50.631Z,1023.40
2018-12-24T09:15:50.540Z,1023.37
2018-12-24T09:16:50.554Z,1023.38
2018-12-24T09:17:50.568Z,1023.44
2018-12-24T09:18:50.584Z,1023.36
2018-12-24T09:19:50.602Z,1023.40
2018-12-24T09:20:52.834Z,1023.37
2018-12-24T09:21:50.624Z,1023.44
2018-12-24T09:22:50.665Z,1023.35
2018-12-24T09:23:50.657Z,1023.38
2018-12-24T09:24:50.668Z,1023.41
2018-12-24T09:25:50.682Z,1023.39
2018-12-24T09:26:50.702Z,1023.46
2018-12-24T09:27:50.712Z,1023.47
2018-12-24T09:28:50.729Z,1023.49
2018-12-24T09:29:50.741Z,1023.50
2018-12-24T09:30:50.759Z,1023.56
2018-12-24T09:31:50.772Z,1023.51
2018-12-24T09:32:50.785Z,1023.62
2018-12-24T09:33:50.800Z,1023.55
2018-12-24T09:34:50.819Z,1023.52
2018-12-24T09:35:50.830Z,1023.54
2018-12-24T09:36:50.851Z,1023.58
2018-12-24T09:37:50.859Z,1023.60
2018-12-24T09:38:50.871Z,1023.65
2018-12-24T09:39:50.890Z,1023.71
2018-12-24T09:40:50.901Z,1023.69
2018-12-24T09:41:50.920Z,1023.71
2018-12-24T09:42:51.795Z,1023.73
2018-12-24T09:43:50.944Z,1023.74
2018-12-24T09:44:58.780Z,1023.73
2018-12-24T09:45:50.975Z,1023.75
2018-12-24T09:46:50.991Z,1023.81
2018-12-24T09:47:51.009Z,1023.85
2018-12-24T09:48:51.018Z,1023.84
2018-12-24T09:49:51.032Z,1023.87
2018-12-24T09:50:51.049Z,1023.88
2018-12-24T09:51:51.066Z,1023.88
2018-12-24T09:52:51.077Z,1023.91
2018-12-24T09:53:51.092Z,1023.99
2018-12-24T09:54:51.106Z,1023.99
2018-12-24T09:55:51.125Z,1024.03
2018-12-24T09:56:51.135Z,1024.02
2018-12-24T09:57:51.151Z,1024.01
2018-12-24T09:58:51.168Z,1024.04
2018-12-24T09:59:51.182Z,1024.09
2018-12-24T10:00:51.196Z,1024.09
2018-12-24T10:01:51.211Z,1024.14
2018-12-24T10:02:51.227Z,1024.14
2018-12-24T10:03:51.239Z,1024.14
2018-12-24T10:04:51.254Z,1024.12
2018-12-24T10:05:51.269Z,1024.12
2018-12-24T10:06:51.290Z,1024.10
2018-12-24T10:07:51.300Z,1024.12
2018-12-24T10:08:51.317Z,1024.11
2018-12-24T10:09:51.332Z,1024.10
2018-12-24T10:10:51.347Z,1024.22
2018-12-24T10:11:51.363Z,1024.25
2018-12-24T10:12:51.376Z,1024.25
2018-12-24T10:13:51.393Z,1024.30
2018-12-24T10:14:51.410Z,1024.33
2018-12-24T10:15:51.421Z,1024.24
2018-12-24T10:16:51.591Z,1024.20
2018-12-24T10:17:51.452Z,1024.23
2018-12-24T10:18:51.473Z,1024.20
2018-12-24T10:19:51.486Z,1024.26
2018-12-24T10:20:51.501Z,1024.23
2018-12-24T10:21:51.514Z,1024.23
2018-12-24T10:22:51.530Z,1024.27
2018-12-24T10:23:51.548Z,1024.28
2018-12-24T10:24:51.564Z,1024.33
2018-12-24T10:25:51.576Z,1024.27
2018-12-24T10:26:51.592Z,1024.33
2018-12-24T10:27:51.610Z,1024.33
2018-12-24T10:28:51.623Z,1024.33
2018-12-24T10:29:51.642Z,1024.40
2018-12-24T10:30:51.655Z,1024.35
2018-12-24T10:31:51.671Z,1024.41
2018-12-24T10:32:51.686Z,1024.47
2018-12-24T10:33:51.700Z,1024.49
2018-12-24T10:34:51.714Z,1024.43
2018-12-24T10:35:51.730Z,1024.40
2018-12-24T10:36:51.746Z,1024.37
2018-12-24T10:37:51.765Z,1024.38
2018-12-24T10:38:51.778Z,1024.33
2018-12-24T10:39:51.792Z,1024.38
2018-12-24T10:40:51.806Z,1024.42
2018-12-24T10:41:51.820Z,1024.40
2018-12-24T10:42:51.839Z,1024.42
2018-12-24T10:43:51.851Z,1024.43
2018-12-24T10:44:51.868Z,1024.40
2018-12-24T10:45:51.901Z,1024.36
2018-12-24T10:46:51.898Z,1024.39
2018-12-24T10:47:51.913Z,1024.37
2018-12-24T10:48:51.926Z,1024.32
2018-12-24T10:49:51.943Z,1024.30
2018-12-24T10:50:51.956Z,1024.31
2018-12-24T10:51:51.971Z,1024.31
2018-12-24T10:52:51.989Z,1024.31
2018-12-24T10:53:52.000Z,1024.30
2018-12-24T10:54:52.016Z,1024.25
2018-12-24T10:55:52.033Z,1024.27
2018-12-24T10:56:52.047Z,1024.25
2018-12-24T10:57:52.061Z,1024.22
2018-12-24T10:58:52.076Z,1024.26
2018-12-24T10:59:52.093Z,1024.25
2018-12-24T11:00:52.107Z,1024.24
2018-12-24T11:01:52.124Z,1024.26
2018-12-24T11:02:52.138Z,1024.28
2018-12-24T11:03:52.152Z,1024.25
2018-12-24T11:04:52.169Z,1024.31
2018-12-24T11:05:52.185Z,1024.21
2018-12-24T11:06:52.199Z,1024.23
2018-12-24T11:07:52.212Z,1024.21
2018-12-24T11:08:52.227Z,1024.18
2018-12-24T11:09:52.442Z,1024.20
2018-12-24T11:10:52.257Z,1024.21
2018-12-24T11:11:52.272Z,1024.25
2018-12-24T11:12:52.287Z,1024.20
2018-12-24T11:13:52.305Z,1024.25
2018-12-24T11:14:52.320Z,1024.27
2018-12-24T11:15:52.332Z,1024.31
2018-12-24T11:16:52.350Z,1024.38
2018-12-24T11:17:52.364Z,1024.35
2018-12-24T11:18:52.380Z,1024.36
2018-12-24T11:19:53.778Z,1024.36
2018-12-24T11:20:52.408Z,1024.30
2018-12-24T11:21:52.425Z,1024.34
2018-12-24T11:22:52.441Z,1024.34
2018-12-24T11:23:52.455Z,1024.32
2018-12-24T11:24:52.470Z,1024.33
2018-12-24T11:25:52.483Z,1024.36
2018-12-24T11:26:52.500Z,1024.36
2018-12-24T11:27:52.515Z,1024.39
2018-12-24T11:28:52.586Z,1024.46
2018-12-24T11:29:52.544Z,1024.47
2018-12-24T11:30:52.560Z,1024.54
2018-12-24T11:31:52.579Z,1024.52
2018-12-24T11:32:52.592Z,1024.52
2018-12-24T11:33:52.607Z,1024.52
2018-12-24T11:34:52.621Z,1024.56
2018-12-24T11:35:52.640Z,1024.54
2018-12-24T11:36:52.653Z,1024.56
2018-12-24T11:37:52.668Z,1024.52
2018-12-24T11:38:52.680Z,1024.49
2018-12-24T11:39:52.697Z,1024.53
2018-12-24T11:40:52.713Z,1024.62
2018-12-24T11:41:52.725Z,1024.61
2018-12-24T11:42:52.742Z,1024.67
2018-12-24T11:43:52.759Z,1024.73
2018-12-24T11:44:52.772Z,1024.70
2018-12-24T11:45:52.788Z,1024.73
2018-12-24T11:46:52.801Z,1024.76
2018-12-24T11:47:52.819Z,1024.77
2018-12-24T11:48:52.831Z,1024.74
2018-12-24T11:49:52.848Z,1024.75
2018-12-24T11:50:52.861Z,1024.75
2018-12-24T11:51:52.876Z,1024.73
2018-12-24T11:52:52.892Z,1024.74
2018-12-24T11:53:52.908Z,1024.70
2018-12-24T11:54:52.925Z,1024.74
2018-12-24T11:55:52.937Z,1024.74
2018-12-24T11:56:52.954Z,1024.75
2018-12-24T11:57:52.969Z,1024.80
2018-12-24T11:58:52.984Z,1024.77
2018-12-24T11:59:53.000Z,1024.81
2018-12-24T12:00:53.015Z,1024.84
2018-12-24T12:01:53.027Z,1024.86
2018-12-24T12:02:53.043Z,1024.84
2018-12-24T12:03:53.060Z,1024.89
2018-12-24T12:04:53.077Z,1024.89
2018-12-24T12:05:53.967Z,1024.92